sensor_id;sensor_type;location;lat;lon;timestamp;pressure;altitude;pressure_sealevel;temperature;humidity
30618;BME280;17384;51.214;9.202;2024-02-15T00:00:29;98779.75;;;9.34;100.00
30618;BME280;17384;51.214;9.202;2024-02-15T00:02:54;98782.25;;;9.42;100.00
30618;BME280;17384;51.214;9.202;2024-02-15T00:05:19;98791.00;;;9.44;100.00
30618;BME280;17384;51.214;9.202;2024-02-15T00:07:45;98778.72;;;9.41;100.00
30618;BME280;17384;51.214;9.202;2024-02-15T00:10:14;98795.78;;;9.35;100.00
30618;BME280;17384;51.214;9.202;2024-02-15T00:12:40;98790.59;;;9.27;100.00
30618;BME280;17384;51.214;9.202;2024-02-15T00:15:05;98783.72;;;9.25;100.00
30618;BME280;17384;51.214;9.202;2024-02-15T00:17:31;98782.88;;;9.31;100.00
30618;BME280;17384;51.214;9.202;2024-02-15T00:19:57;98791.00;;;9.37;100.00
30618;BME280;17384;51.214;9.202;2024-02-15T00:22:23;98795.19;;;9.27;100.00
30618;BME280;17384;51.214;9.202;2024-02-15T00:24:48;98777.69;;;9.29;100.00
30618;BME280;17384;51.214;9.202;2024-02-15T00:27:17;98786.22;;;9.26;100.00
30618;BME280;17384;51.214;9.202;2024-02-15T00:29:42;98784.34;;;9.27;100.00
30618;BME280;17384;51.214;9.202;2024-02-15T00:32:09;98775.59;;;9.25;100.00
30618;BME280;17384;51.214;9.202;2024-02-15T00:34:36;98788.50;;;9.36;100.00
30618;BME280;17384;51.214;9.202;2024-02-15T00:37:04;98788.09;;;9.26;100.00
30618;BME280;17384;51.214;9.202;2024-02-15T00:39:30;98792.44;;;9.33;100.00
30618;BME280;17384;51.214;9.202;2024-02-15T00:41:57;98791.22;;;9.29;100.00
30618;BME280;17384;51.214;9.202;2024-02-15T00:44:22;98794.16;;;9.28;100.00
30618;BME280;17384;51.214;9.202;2024-02-15T00:46:48;98799.34;;;9.36;100.00
30618;BME280;17384;51.214;9.202;2024-02-15T00:49:13;98801.41;;;9.34;100.00
30618;BME280;17384;51.214;9.202;2024-02-15T00:51:39;98793.09;;;9.29;100.00
30618;BME280;17384;51.214;9.202;2024-02-15T00:54:05;98798.50;;;9.42;100.00
30618;BME280;17384;51.214;9.202;2024-02-15T00:56:31;98798.94;;;9.45;100.00
30618;BME280;17384;51.214;9.202;2024-02-15T00:58:59;98796.63;;;9.49;100.00
30618;BME280;17384;51.214;9.202;2024-02-15T01:01:26;98798.09;;;9.45;100.00
30618;BME280;17384;51.214;9.202;2024-02-15T01:03:51;98796.00;;;9.27;100.00
30618;BME280;17384;51.214;9.202;2024-02-15T01:06:17;98791.81;;;9.31;100.00
30618;BME280;17384;51.214;9.202;2024-02-15T01:08:42;98797.69;;;9.28;100.00
30618;BME280;17384;51.214;9.202;2024-02-15T01:11:08;98791.22;;;9.23;100.00
30618;BME280;17384;51.214;9.202;2024-02-15T01:13:35;98793.28;;;9.34;100.00
30618;BME280;17384;51.214;9.202;2024-02-15T01:16:00;98792.88;;;9.37;100.00
30618;BME280;17384;51.214;9.202;2024-02-15T01:18:28;98793.53;;;9.52;100.00
30618;BME280;17384;51.214;9.202;2024-02-15T01:20:55;98805.59;;;9.43;100.00
30618;BME280;17384;51.214;9.202;2024-02-15T01:23:21;98807.03;;;9.32;100.00
30618;BME280;17384;51.214;9.202;2024-02-15T01:25:48;98782.88;;;9.18;100.00
30618;BME280;17384;51.214;9.202;2024-02-15T01:28:13;98786.03;;;9.28;100.00
30618;BME280;17384;51.214;9.202;2024-02-15T01:30:39;98796.81;;;9.34;100.00
30618;BME280;17384;51.214;9.202;2024-02-15T01:33:04;98781.41;;;9.35;100.00
30618;BME280;17384;51.214;9.202;2024-02-15T01:35:30;98787.69;;;9.29;100.00
30618;BME280;17384;51.214;9.202;2024-02-15T01:37:55;98792.66;;;9.32;100.00
30618;BME280;17384;51.214;9.202;2024-02-15T01:40:21;98787.91;;;9.27;100.00
30618;BME280;17384;51.214;9.202;2024-02-15T01:42:47;98796.41;;;9.37;100.00
30618;BME280;17384;51.214;9.202;2024-02-15T01:45:15;98784.75;;;9.30;100.00
30618;BME280;17384;51.214;9.202;2024-02-15T01:47:41;98789.75;;;9.20;100.00
30618;BME280;17384;51.214;9.202;2024-02-15T01:50:10;98788.28;;;9.31;100.00
30618;BME280;17384;51.214;9.202;2024-02-15T01:52:37;98786.44;;;9.25;100.00
30618;BME280;17384;51.214;9.202;2024-02-15T01:55:05;98781.84;;;9.32;100.00
30618;BME280;17384;51.214;9.202;2024-02-15T01:57:36;98774.75;;;9.18;100.00
30618;BME280;17384;51.214;9.202;2024-02-15T02:00:07;98769.53;;;9.09;100.00
30618;BME280;17384;51.214;9.202;2024-02-15T02:02:34;98773.28;;;9.08;100.00
30618;BME280;17384;51.214;9.202;2024-02-15T02:07:28;98777.25;;;9.19;100.00
30618;BME280;17384;51.214;9.202;2024-02-15T02:09:54;98773.50;;;9.20;100.00
30618;BME280;17384;51.214;9.202;2024-02-15T02:12:19;98766.00;;;9.15;100.00
30618;BME280;17384;51.214;9.202;2024-02-15T02:14:45;98775.41;;;9.26;100.00
30618;BME280;17384;51.214;9.202;2024-02-15T02:17:14;98771.00;;;9.19;100.00
30618;BME280;17384;51.214;9.202;2024-02-15T02:19:41;98764.75;;;9.31;100.00
30618;BME280;17384;51.214;9.202;2024-02-15T02:22:08;98768.28;;;9.32;100.00
30618;BME280;17384;51.214;9.202;2024-02-15T02:24:43;98780.59;;;9.34;100.00
30618;BME280;17384;51.214;9.202;2024-02-15T02:27:12;98771.84;;;9.26;100.00
30618;BME280;17384;51.214;9.202;2024-02-15T02:29:42;98761.84;;;9.13;100.00
30618;BME280;17384;51.214;9.202;2024-02-15T02:32:10;98756.44;;;9.20;100.00
30618;BME280;17384;51.214;9.202;2024-02-15T02:34:36;98761.66;;;9.21;100.00
30618;BME280;17384;51.214;9.202;2024-02-15T02:37:01;98756.44;;;9.20;100.00
30618;BME280;17384;51.214;9.202;2024-02-15T02:39:30;98755.81;;;9.18;100.00
30618;BME280;17384;51.214;9.202;2024-02-15T02:41:57;98757.06;;;9.22;100.00
30618;BME280;17384;51.214;9.202;2024-02-15T02:44:23;98761.00;;;9.39;100.00
30618;BME280;17384;51.214;9.202;2024-02-15T02:46:48;98774.53;;;9.32;100.00
30618;BME280;17384;51.214;9.202;2024-02-15T02:49:14;98772.25;;;9.16;100.00
30618;BME280;17384;51.214;9.202;2024-02-15T02:51:39;98768.94;;;9.21;100.00
30618;BME280;17384;51.214;9.202;2024-02-15T02:54:05;98755.63;;;9.26;100.00
30618;BME280;17384;51.214;9.202;2024-02-15T02:56:32;98779.16;;;9.25;100.00
30618;BME280;17384;51.214;9.202;2024-02-15T02:58:57;98773.72;;;9.19;100.00
30618;BME280;17384;51.214;9.202;2024-02-15T03:01:23;98779.34;;;9.24;100.00
30618;BME280;17384;51.214;9.202;2024-02-15T03:03:52;98769.56;;;9.23;100.00
30618;BME280;17384;51.214;9.202;2024-02-15T03:06:21;98761.88;;;9.26;100.00
30618;BME280;17384;51.214;9.202;2024-02-15T03:08:50;98768.13;;;9.27;100.00
30618;BME280;17384;51.214;9.202;2024-02-15T03:11:19;98754.38;;;9.22;100.00
30618;BME280;17384;51.214;9.202;2024-02-15T03:13:44;98760.59;;;9.22;100.00
30618;BME280;17384;51.214;9.202;2024-02-15T03:16:10;98758.31;;;9.26;100.00
30618;BME280;17384;51.214;9.202;2024-02-15T03:18:35;98759.16;;;9.20;100.00
30618;BME280;17384;51.214;9.202;2024-02-15T03:21:01;98755.19;;;9.42;100.00
30618;BME280;17384;51.214;9.202;2024-02-15T03:23:26;98751.03;;;9.46;100.00
30618;BME280;17384;51.214;9.202;2024-02-15T03:25:52;98746.00;;;9.36;100.00
30618;BME280;17384;51.214;9.202;2024-02-15T03:28:18;98751.22;;;9.38;100.00
30618;BME280;17384;51.214;9.202;2024-02-15T03:30:46;98766.63;;;9.44;100.00
30618;BME280;17384;51.214;9.202;2024-02-15T03:33:12;98766.00;;;9.35;100.00
30618;BME280;17384;51.214;9.202;2024-02-15T03:35:38;98755.19;;;9.35;100.00
30618;BME280;17384;51.214;9.202;2024-02-15T03:38:04;98758.31;;;9.39;100.00
30618;BME280;17384;51.214;9.202;2024-02-15T03:40:29;98749.78;;;9.22;100.00
30618;BME280;17384;51.214;9.202;2024-02-15T03:42:55;98751.25;;;9.25;100.00
30618;BME280;17384;51.214;9.202;2024-02-15T03:45:22;98757.69;;;9.24;100.00
30618;BME280;17384;51.214;9.202;2024-02-15T03:47:54;98758.50;;;9.31;100.00
30618;BME280;17384;51.214;9.202;2024-02-15T03:50:21;98766.03;;;9.22;100.00
30618;BME280;17384;51.214;9.202;2024-02-15T03:52:49;98760.19;;;9.25;100.00
30618;BME280;17384;51.214;9.202;2024-02-15T03:55:16;98760.63;;;9.29;100.00
30618;BME280;17384;51.214;9.202;2024-02-15T03:57:41;98756.00;;;9.36;100.00
30618;BME280;17384;51.214;9.202;2024-02-15T04:00:09;98766.84;;;9.42;100.00
30618;BME280;17384;51.214;9.202;2024-02-15T04:02:36;98765.19;;;9.48;100.00
30618;BME280;17384;51.214;9.202;2024-02-15T04:05:02;98771.41;;;9.35;100.00
30618;BME280;17384;51.214;9.202;2024-02-15T04:07:30;98788.94;;;9.46;100.00
30618;BME280;17384;51.214;9.202;2024-02-15T04:09:55;98773.09;;;9.49;100.00
30618;BME280;17384;51.214;9.202;2024-02-15T04:12:21;98784.34;;;9.53;100.00
30618;BME280;17384;51.214;9.202;2024-02-15T04:14:46;98782.69;;;9.45;100.00
30618;BME280;17384;51.214;9.202;2024-02-15T04:17:13;98779.75;;;9.60;100.00
30618;BME280;17384;51.214;9.202;2024-02-15T04:19:45;98770.19;;;9.51;100.00
30618;BME280;17384;51.214;9.202;2024-02-15T04:22:12;98780.19;;;9.44;100.00
30618;BME280;17384;51.214;9.202;2024-02-15T04:24:37;98767.91;;;9.55;100.00
30618;BME280;17384;51.214;9.202;2024-02-15T04:27:06;98775.81;;;9.43;100.00
30618;BME280;17384;51.214;9.202;2024-02-15T04:29:37;98777.69;;;9.49;100.00
30618;BME280;17384;51.214;9.202;2024-02-15T04:32:05;98780.19;;;9.44;100.00
30618;BME280;17384;51.214;9.202;2024-02-15T04:34:34;98783.94;;;9.43;100.00
30618;BME280;17384;51.214;9.202;2024-02-15T04:37:00;98770.59;;;9.55;100.00
30618;BME280;17384;51.214;9.202;2024-02-15T04:39:26;98779.75;;;9.60;100.00
30618;BME280;17384;51.214;9.202;2024-02-15T04:41:55;98784.53;;;9.58;100.00
30618;BME280;17384;51.214;9.202;2024-02-15T04:44:20;98785.16;;;9.67;100.00
30618;BME280;17384;51.214;9.202;2024-02-15T04:46:49;98792.03;;;9.63;100.00
30618;BME280;17384;51.214;9.202;2024-02-15T04:49:15;98795.16;;;9.66;100.00
30618;BME280;17384;51.214;9.202;2024-02-15T04:51:40;98797.66;;;9.61;100.00
30618;BME280;17384;51.214;9.202;2024-02-15T04:54:07;98802.06;;;9.56;100.00
30618;BME280;17384;51.214;9.202;2024-02-15T04:56:33;98788.91;;;9.39;100.00
30618;BME280;17384;51.214;9.202;2024-02-15T04:58:58;98791.41;;;9.34;100.00
30618;BME280;17384;51.214;9.202;2024-02-15T05:01:24;98787.88;;;9.34;100.00
30618;BME280;17384;51.214;9.202;2024-02-15T05:03:49;98784.53;;;9.32;100.00
30618;BME280;17384;51.214;9.202;2024-02-15T05:06:15;98786.44;;;9.51;100.00
30618;BME280;17384;51.214;9.202;2024-02-15T05:08:40;98787.69;;;9.48;100.00
30618;BME280;17384;51.214;9.202;2024-02-15T05:11:09;98786.03;;;9.54;100.00
30618;BME280;17384;51.214;9.202;2024-02-15T05:13:40;98781.00;;;9.58;100.00
30618;BME280;17384;51.214;9.202;2024-02-15T05:16:06;98787.69;;;9.55;100.00
30618;BME280;17384;51.214;9.202;2024-02-15T05:18:32;98780.59;;;9.54;100.00
30618;BME280;17384;51.214;9.202;2024-02-15T05:21:00;98792.25;;;9.48;100.00
30618;BME280;17384;51.214;9.202;2024-02-15T05:23:26;98784.56;;;9.45;100.00
30618;BME280;17384;51.214;9.202;2024-02-15T05:25:51;98787.69;;;9.55;100.00
30618;BME280;17384;51.214;9.202;2024-02-15T05:28:19;98779.97;;;9.52;100.00
30618;BME280;17384;51.214;9.202;2024-02-15T05:30:45;98786.00;;;9.47;100.00
30618;BME280;17384;51.214;9.202;2024-02-15T05:33:11;98792.25;;;9.48;100.00
30618;BME280;17384;51.214;9.202;2024-02-15T05:35:37;98791.84;;;9.44;100.00
30618;BME280;17384;51.214;9.202;2024-02-15T05:38:05;98781.00;;;9.44;100.00
30618;BME280;17384;51.214;9.202;2024-02-15T05:40:32;98783.94;;;9.43;100.00
30618;BME280;17384;51.214;9.202;2024-02-15T05:42:57;98780.59;;;9.41;100.00
30618;BME280;17384;51.214;9.202;2024-02-15T05:47:52;98789.75;;;9.33;100.00
30618;BME280;17384;51.214;9.202;2024-02-15T05:50:18;98783.50;;;9.46;100.00
30618;BME280;17384;51.214;9.202;2024-02-15T05:52:46;98787.88;;;9.47;100.00
30618;BME280;17384;51.214;9.202;2024-02-15T05:55:12;98774.34;;;9.40;100.00
30618;BME280;17384;51.214;9.202;2024-02-15T05:57:43;98784.75;;;9.43;100.00
30618;BME280;17384;51.214;9.202;2024-02-15T06:00:09;98787.88;;;9.34;100.00
30618;BME280;17384;51.214;9.202;2024-02-15T06:02:34;98783.09;;;9.29;100.00
30618;BME280;17384;51.214;9.202;2024-02-15T06:05:00;98776.41;;;9.32;100.00
30618;BME280;17384;51.214;9.202;2024-02-15T06:07:29;98781.66;;;9.53;100.00
30618;BME280;17384;51.214;9.202;2024-02-15T06:09:54;98776.19;;;9.66;100.00
30618;BME280;17384;51.214;9.202;2024-02-15T06:12:20;98789.94;;;9.71;100.00
30618;BME280;17384;51.214;9.202;2024-02-15T06:14:45;98783.91;;;9.82;100.00
30618;BME280;17384;51.214;9.202;2024-02-15T06:17:11;98784.31;;;9.79;100.00
30618;BME280;17384;51.214;9.202;2024-02-15T06:19:37;98773.69;;;9.84;100.00
30618;BME280;17384;51.214;9.202;2024-02-15T06:22:03;98775.16;;;9.80;100.00
30618;BME280;17384;51.214;9.202;2024-02-15T06:24:29;98791.19;;;9.75;100.00
30618;BME280;17384;51.214;9.202;2024-02-15T06:26:55;98788.91;;;9.72;100.00
30618;BME280;17384;51.214;9.202;2024-02-15T06:29:25;98778.06;;;9.59;100.00
30618;BME280;17384;51.214;9.202;2024-02-15T06:32:09;98787.69;;;9.55;100.00
30618;BME280;17384;51.214;9.202;2024-02-15T06:34:54;98796.03;;;9.54;100.00
30618;BME280;17384;51.214;9.202;2024-02-15T06:37:39;98804.13;;;9.47;100.00
30618;BME280;17384;51.214;9.202;2024-02-15T06:40:23;98800.59;;;9.46;100.00
30618;BME280;17384;51.214;9.202;2024-02-15T06:42:49;98806.84;;;9.54;100.00
30618;BME280;17384;51.214;9.202;2024-02-15T06:45:15;98800.19;;;9.43;100.00
30618;BME280;17384;51.214;9.202;2024-02-15T06:47:42;98801.84;;;9.44;100.00
30618;BME280;17384;51.214;9.202;2024-02-15T06:50:10;98803.50;;;9.45;100.00
30618;BME280;17384;51.214;9.202;2024-02-15T06:52:37;98807.66;;;9.41;100.00
30618;BME280;17384;51.214;9.202;2024-02-15T06:55:05;98794.75;;;9.49;100.00
30618;BME280;17384;51.214;9.202;2024-02-15T06:57:30;98785.78;;;9.36;100.00
30618;BME280;17384;51.214;9.202;2024-02-15T06:59:56;98798.09;;;9.45;100.00
30618;BME280;17384;51.214;9.202;2024-02-15T07:02:22;98790.19;;;9.50;100.00
30618;BME280;17384;51.214;9.202;2024-02-15T07:04:48;98774.78;;;9.50;100.00
30618;BME280;17384;51.214;9.202;2024-02-15T07:07:14;98778.53;;;9.30;100.00
30618;BME280;17384;51.214;9.202;2024-02-15T07:09:40;98770.59;;;9.22;100.00
30618;BME280;17384;51.214;9.202;2024-02-15T07:12:05;98771.00;;;9.32;100.00
30618;BME280;17384;51.214;9.202;2024-02-15T07:14:31;98763.75;;;9.26;100.00
30618;BME280;17384;51.214;9.202;2024-02-15T07:16:56;98753.34;;;9.29;100.00
30618;BME280;17384;51.214;9.202;2024-02-15T07:19:23;98754.78;;;9.25;100.00
30618;BME280;17384;51.214;9.202;2024-02-15T07:21:49;98752.69;;;9.34;100.00
30618;BME280;17384;51.214;9.202;2024-02-15T07:24:14;98746.84;;;9.37;100.00
30618;BME280;17384;51.214;9.202;2024-02-15T07:26:40;98754.56;;;9.53;100.00
30618;BME280;17384;51.214;9.202;2024-02-15T07:29:05;98758.72;;;9.56;100.00
30618;BME280;17384;51.214;9.202;2024-02-15T07:31:31;98753.69;;;9.59;100.00
30618;BME280;17384;51.214;9.202;2024-02-15T07:33:59;98768.50;;;9.63;100.00
30618;BME280;17384;51.214;9.202;2024-02-15T07:36:24;98763.69;;;9.65;100.00
30618;BME280;17384;51.214;9.202;2024-02-15T07:38:51;98775.16;;;9.67;100.00
30618;BME280;17384;51.214;9.202;2024-02-15T07:41:19;98771.41;;;9.75;100.00
30618;BME280;17384;51.214;9.202;2024-02-15T07:43:51;98778.91;;;9.73;100.00
30618;BME280;17384;51.214;9.202;2024-02-15T07:46:20;98785.78;;;9.62;100.00
30618;BME280;17384;51.214;9.202;2024-02-15T07:48:47;98780.19;;;9.57;100.00
30618;BME280;17384;51.214;9.202;2024-02-15T07:51:16;98782.66;;;9.78;100.00
30618;BME280;17384;51.214;9.202;2024-02-15T07:53:45;98804.31;;;9.78;100.00
30618;BME280;17384;51.214;9.202;2024-02-15T07:56:12;98796.81;;;9.67;100.00
30618;BME280;17384;51.214;9.202;2024-02-15T07:58:39;98800.16;;;9.82;100.00
30618;BME280;17384;51.214;9.202;2024-02-15T08:01:07;98791.19;;;9.82;100.00
30618;BME280;17384;51.214;9.202;2024-02-15T08:03:33;98809.53;;;9.73;100.00
30618;BME280;17384;51.214;9.202;2024-02-15T08:06:01;98790.56;;;9.73;100.00
30618;BME280;17384;51.214;9.202;2024-02-15T08:08:26;98800.16;;;9.82;100.00
30618;BME280;17384;51.214;9.202;2024-02-15T08:10:51;98798.03;;;9.91;100.00
30618;BME280;17384;51.214;9.202;2024-02-15T08:13:17;98801.78;;;9.97;100.00
30618;BME280;17384;51.214;9.202;2024-02-15T08:15:43;98800.38;;;9.81;100.00
30618;BME280;17384;51.214;9.202;2024-02-15T08:18:10;98806.78;;;9.87;100.00
30618;BME280;17384;51.214;9.202;2024-02-15T08:20:38;98803.28;;;9.79;100.00
30618;BME280;17384;51.214;9.202;2024-02-15T08:23:05;98810.97;;;9.89;100.00
30618;BME280;17384;51.214;9.202;2024-02-15T08:25:31;98805.13;;;9.99;100.00
30618;BME280;17384;51.214;9.202;2024-02-15T08:27:56;98813.47;;;10.04;100.00
30618;BME280;17384;51.214;9.202;2024-02-15T08:30:22;98811.38;;;9.93;100.00
30618;BME280;17384;51.214;9.202;2024-02-15T08:32:47;98806.38;;;9.90;100.00
30618;BME280;17384;51.214;9.202;2024-02-15T08:35:13;98807.41;;;10.02;100.00
30618;BME280;17384;51.214;9.202;2024-02-15T08:37:40;98799.91;;;10.10;100.00
30618;BME280;17384;51.214;9.202;2024-02-15T08:40:08;98802.59;;;10.10;100.00
30618;BME280;17384;51.214;9.202;2024-02-15T08:42:41;98806.78;;;10.06;100.00
30618;BME280;17384;51.214;9.202;2024-02-15T08:45:07;98806.78;;;10.06;100.00
30618;BME280;17384;51.214;9.202;2024-02-15T08:47:41;98802.78;;;10.22;100.00
30618;BME280;17384;51.214;9.202;2024-02-15T08:50:08;98801.13;;;10.21;100.00
30618;BME280;17384;51.214;9.202;2024-02-15T08:52:37;98804.59;;;10.41;100.00
30618;BME280;17384;51.214;9.202;2024-02-15T08:55:09;98803.63;;;10.29;100.00
30618;BME280;17384;51.214;9.202;2024-02-15T08:57:36;98803.22;;;10.19;100.00
30618;BME280;17384;51.214;9.202;2024-02-15T09:00:07;98799.22;;;10.28;100.00
30618;BME280;17384;51.214;9.202;2024-02-15T09:02:45;98792.91;;;10.41;100.00
30618;BME280;17384;51.214;9.202;2024-02-15T09:05:11;98801.25;;;10.46;100.00
30618;BME280;17384;51.214;9.202;2024-02-15T09:07:42;98803.72;;;10.54;100.00
30618;BME280;17384;51.214;9.202;2024-02-15T09:10:09;98795.41;;;10.42;100.00
30618;BME280;17384;51.214;9.202;2024-02-15T09:12:38;98801.25;;;10.46;100.00
30618;BME280;17384;51.214;9.202;2024-02-15T09:15:09;98808.56;;;10.45;100.00
30618;BME280;17384;51.214;9.202;2024-02-15T09:17:36;98806.00;;;10.57;100.00
30618;BME280;17384;51.214;9.202;2024-02-15T09:20:08;98806.44;;;10.54;100.00
30618;BME280;17384;51.214;9.202;2024-02-15T09:22:42;98796.66;;;10.46;100.00
30618;BME280;17384;51.214;9.202;2024-02-15T09:25:09;98800.00;;;10.48;100.00
30618;BME280;17384;51.214;9.202;2024-02-15T09:27:35;98804.16;;;10.44;100.00
30618;BME280;17384;51.214;9.202;2024-02-15T09:30:00;98788.31;;;10.41;100.00
30618;BME280;17384;51.214;9.202;2024-02-15T09:32:26;98778.78;;;10.32;100.00
30618;BME280;17384;51.214;9.202;2024-02-15T09:34:51;98786.94;;;10.19;100.00
30618;BME280;17384;51.214;9.202;2024-02-15T09:37:16;98778.00;;;10.12;100.00
30618;BME280;17384;51.214;9.202;2024-02-15T09:39:42;98779.25;;;10.03;100.00
30618;BME280;17384;51.214;9.202;2024-02-15T09:42:07;98780.53;;;10.00;100.00
30618;BME280;17384;51.214;9.202;2024-02-15T09:44:33;98773.44;;;9.99;100.00
30618;BME280;17384;51.214;9.202;2024-02-15T09:47:05;98772.38;;;10.07;100.00
30618;BME280;17384;51.214;9.202;2024-02-15T09:49:38;98763.81;;;10.10;100.00
30618;BME280;17384;51.214;9.202;2024-02-15T09:52:07;98768.38;;;10.16;100.00
30618;BME280;17384;51.214;9.202;2024-02-15T09:54:43;98753.56;;;10.18;100.00
30618;BME280;17384;51.214;9.202;2024-02-15T09:57:09;98758.13;;;10.38;100.00
30618;BME280;17384;51.214;9.202;2024-02-15T09:59:38;98755.66;;;10.16;100.00
30618;BME280;17384;51.214;9.202;2024-02-15T10:02:05;98754.22;;;10.21;100.00
30618;BME280;17384;51.214;9.202;2024-02-15T10:04:37;98744.81;;;10.16;100.00
30618;BME280;17384;51.214;9.202;2024-02-15T10:07:02;98735.22;;;10.14;100.00
30618;BME280;17384;51.214;9.202;2024-02-15T10:09:29;98729.22;;;10.12;100.00
30618;BME280;17384;51.214;9.202;2024-02-15T10:12:02;98730.47;;;10.03;100.00
30618;BME280;17384;51.214;9.202;2024-02-15T10:14:29;98728.59;;;10.03;100.00
30618;BME280;17384;51.214;9.202;2024-02-15T10:16:56;98734.22;;;10.08;100.00
30618;BME280;17384;51.214;9.202;2024-02-15T10:19:22;98727.34;;;10.06;100.00
30618;BME280;17384;51.214;9.202;2024-02-15T10:21:54;98729.59;;;10.15;100.00
30618;BME280;17384;51.214;9.202;2024-02-15T10:24:23;98718.75;;;10.15;100.00
30618;BME280;17384;51.214;9.202;2024-02-15T10:27:03;98733.97;;;10.23;100.00
30618;BME280;17384;51.214;9.202;2024-02-15T10:29:30;98737.50;;;10.17;100.00
30618;BME280;17384;51.214;9.202;2024-02-15T10:32:00;98732.50;;;10.21;100.00
30618;BME280;17384;51.214;9.202;2024-02-15T10:34:27;98735.84;;;10.23;100.00
30618;BME280;17384;51.214;9.202;2024-02-15T10:37:12;98738.75;;;10.14;100.00
30618;BME280;17384;51.214;9.202;2024-02-15T10:39:38;98739.81;;;10.13;100.00
30618;BME280;17384;51.214;9.202;2024-02-15T10:42:06;98733.34;;;10.21;100.00
30618;BME280;17384;51.214;9.202;2024-02-15T10:44:32;98742.09;;;10.30;100.00
30618;BME280;17384;51.214;9.202;2024-02-15T10:46:59;98734.59;;;10.25;100.00
30618;BME280;17384;51.214;9.202;2024-02-15T10:49:26;98727.66;;;10.36;100.00
30618;BME280;17384;51.214;9.202;2024-02-15T10:51:59;98723.44;;;10.40;100.00
30618;BME280;17384;51.214;9.202;2024-02-15T10:54:46;98725.91;;;10.48;100.00
30618;BME280;17384;51.214;9.202;2024-02-15T10:57:13;98744.25;;;10.52;100.00
30618;BME280;17384;51.214;9.202;2024-02-15T11:00:02;98743.22;;;10.54;100.00
30618;BME280;17384;51.214;9.202;2024-02-15T11:02:43;98749.94;;;10.44;100.00
30618;BME280;17384;51.214;9.202;2024-02-15T11:05:12;98733.19;;;10.54;100.00
30618;BME280;17384;51.214;9.202;2024-02-15T11:07:40;98738.38;;;10.62;100.00
30618;BME280;17384;51.214;9.202;2024-02-15T11:10:09;98746.81;;;10.79;100.00
30618;BME280;17384;51.214;9.202;2024-02-15T11:12:37;98747.19;;;10.89;100.00
30618;BME280;17384;51.214;9.202;2024-02-15T11:15:03;98746.19;;;10.83;100.00
30618;BME280;17384;51.214;9.202;2024-02-15T11:22:59;98753.78;;;11.00;100.00
30618;BME280;17384;51.214;9.202;2024-02-15T11:25:35;98745.41;;;11.01;100.00
30618;BME280;17384;51.214;9.202;2024-02-15T11:30:53;98741.88;;;11.01;100.00
30618;BME280;17384;51.214;9.202;2024-02-15T11:33:29;98748.78;;;10.97;100.00
30618;BME280;17384;51.214;9.202;2024-02-15T11:36:03;98746.97;;;10.91;100.00
30618;BME280;17384;51.214;9.202;2024-02-15T11:38:32;98748.78;;;10.97;100.00
30618;BME280;17384;51.214;9.202;2024-02-15T11:41:00;98749.81;;;11.02;100.00
30618;BME280;17384;51.214;9.202;2024-02-15T11:43:48;98747.53;;;10.99;100.00
30618;BME280;17384;51.214;9.202;2024-02-15T11:46:17;98744.16;;;11.04;100.00
30618;BME280;17384;51.214;9.202;2024-02-15T11:48:47;98752.50;;;11.02;100.00
30618;BME280;17384;51.214;9.202;2024-02-15T11:51:33;98753.34;;;11.03;100.00
30618;BME280;17384;51.214;9.202;2024-02-15T11:54:06;98742.09;;;10.99;100.00
30618;BME280;17384;51.214;9.202;2024-02-15T11:56:48;98731.59;;;11.09;100.00
30618;BME280;17384;51.214;9.202;2024-02-15T11:59:17;98748.66;;;11.16;100.00
30618;BME280;17384;51.214;9.202;2024-02-15T12:01:57;98756.81;;;11.16;100.00
30618;BME280;17384;51.214;9.202;2024-02-15T12:04:41;98751.09;;;11.25;100.00
30618;BME280;17384;51.214;9.202;2024-02-15T12:07:25;98748.31;;;11.31;100.00
30618;BME280;17384;51.214;9.202;2024-02-15T12:10:17;98731.38;;;11.36;100.00
30618;BME280;17384;51.214;9.202;2024-02-15T12:13:01;98741.34;;;11.42;100.00
30618;BME280;17384;51.214;9.202;2024-02-15T12:15:58;98743.75;;;11.50;100.00
30618;BME280;17384;51.214;9.202;2024-02-15T12:18:43;98729.22;;;11.44;100.00
30618;BME280;17384;51.214;9.202;2024-02-15T12:21:12;98739.47;;;11.42;100.00
30618;BME280;17384;51.214;9.202;2024-02-15T12:23:40;98734.47;;;11.39;100.00
30618;BME280;17384;51.214;9.202;2024-02-15T12:26:06;98723.38;;;11.41;100.00
30618;BME280;17384;51.214;9.202;2024-02-15T12:28:33;98727.31;;;11.45;100.00
30618;BME280;17384;51.214;9.202;2024-02-15T12:31:01;98715.91;;;11.36;100.00
30618;BME280;17384;51.214;9.202;2024-02-15T12:33:27;98723.78;;;11.44;100.00
30618;BME280;17384;51.214;9.202;2024-02-15T12:36:03;98715.06;;;11.36;100.00
30618;BME280;17384;51.214;9.202;2024-02-15T12:38:30;98712.56;;;11.34;100.00
30618;BME280;17384;51.214;9.202;2024-02-15T12:40:56;98719.56;;;11.24;100.00
30618;BME280;17384;51.214;9.202;2024-02-15T12:43:22;98722.22;;;11.30;100.00
30618;BME280;17384;51.214;9.202;2024-02-15T12:45:48;98710.91;;;11.33;100.00
30618;BME280;17384;51.214;9.202;2024-02-15T12:48:13;98714.91;;;11.31;100.00
30618;BME280;17384;51.214;9.202;2024-02-15T12:50:40;98698.44;;;11.26;100.00
30618;BME280;17384;51.214;9.202;2024-02-15T12:53:06;98700.53;;;11.24;100.00
30618;BME280;17384;51.214;9.202;2024-02-15T12:55:34;98698.03;;;11.22;100.00
30618;BME280;17384;51.214;9.202;2024-02-15T12:58:02;98694.22;;;11.30;100.00
30618;BME280;17384;51.214;9.202;2024-02-15T13:00:33;98706.31;;;11.34;100.00
30618;BME280;17384;51.214;9.202;2024-02-15T13:03:03;98706.44;;;11.45;100.00
30618;BME280;17384;51.214;9.202;2024-02-15T13:05:30;98713.75;;;11.45;100.00
30618;BME280;17384;51.214;9.202;2024-02-15T13:07:56;98698.38;;;11.32;100.00
30618;BME280;17384;51.214;9.202;2024-02-15T13:10:29;98700.78;;;11.47;100.00
30618;BME280;17384;51.214;9.202;2024-02-15T13:12:55;98708.69;;;11.48;100.00
30618;BME280;17384;51.214;9.202;2024-02-15T13:15:21;98716.84;;;11.48;100.00